createdAt,value
2022-08-02T00:00:38.345Z,99.90
2022-08-02T00:03:05.341Z,99.90
2022-08-02T00:05:32.494Z,99.90
2022-08-02T00:07:59.446Z,99.90
2022-08-02T00:10:26.318Z,99.90
2022-08-02T00:12:53.740Z,99.90
2022-08-02T00:15:22.312Z,99.90
2022-08-02T00:17:49.346Z,99.90
2022-08-02T00:20:16.427Z,99.90
2022-08-02T00:22:43.386Z,99.90
2022-08-02T00:25:10.857Z,99.90
2022-08-02T00:27:37.740Z,99.90
2022-08-02T00:30:05.365Z,99.90
2022-08-02T00:32:32.314Z,99.90
2022-08-02T00:34:59.214Z,99.90
2022-08-02T00:37:26.149Z,99.90
2022-08-02T00:39:53.106Z,99.90
2022-08-02T00:42:20.204Z,99.90
2022-08-02T00:44:47.095Z,99.90
2022-08-02T00:47:19.566Z,99.90
2022-08-02T00:49:47.342Z,99.90
2022-08-02T00:52:14.703Z,99.90
2022-08-02T00:54:42.110Z,99.90
2022-08-02T00:57:09.039Z,99.90
2022-08-02T00:59:36.329Z,99.90
2022-08-02T01:09:28.963Z,99.90
2022-08-02T01:11:56.267Z,99.90
2022-08-02T01:14:25.377Z,99.90
2022-08-02T01:17:10.137Z,99.90
2022-08-02T01:19:40.418Z,99.90
2022-08-02T01:23:00.628Z,99.90
2022-08-02T01:25:58.164Z,99.90
2022-08-02T01:29:21.404Z,99.90
2022-08-02T01:32:14.715Z,99.90
2022-08-02T01:34:59.881Z,99.90
2022-08-02T01:37:35.236Z,99.90
2022-08-02T01:40:10.302Z,99.90
2022-08-02T01:42:42.210Z,99.90
2022-08-02T01:45:11.715Z,99.90
2022-08-02T01:47:41.309Z,99.90
2022-08-02T01:50:11.190Z,99.90
2022-08-02T01:52:42.323Z,99.90
2022-08-02T01:55:24.163Z,99.90
2022-08-02T01:58:05.061Z,99.90
2022-08-02T02:00:35.000Z,99.90
2022-08-02T02:03:05.161Z,99.90
2022-08-02T02:05:34.163Z,99.90
2022-08-02T02:08:04.404Z,99.90
2022-08-02T02:10:34.617Z,99.90
2022-08-02T02:13:07.826Z,99.90
2022-08-02T02:15:38.117Z,99.90
2022-08-02T02:18:12.443Z,99.90
2022-08-02T02:20:41.269Z,99.90
2022-08-02T02:23:08.776Z,99.90
2022-08-02T02:25:41.733Z,99.90
2022-08-02T02:28:22.414Z,99.90
2022-08-02T02:30:53.332Z,99.90
2022-08-02T02:33:25.185Z,99.90
2022-08-02T02:35:54.725Z,99.90
2022-08-02T02:38:23.051Z,99.90
2022-08-02T02:40:50.551Z,99.90
2022-08-02T02:43:18.011Z,99.90
2022-08-02T02:45:46.049Z,99.90
2022-08-02T02:48:15.191Z,99.90
2022-08-02T02:50:44.030Z,99.90
2022-08-02T02:53:12.705Z,99.90
2022-08-02T02:55:41.765Z,99.90
2022-08-02T02:58:29.232Z,99.90
2022-08-02T03:01:14.702Z,99.90
2022-08-02T03:03:46.784Z,99.90
2022-08-02T03:06:15.828Z,99.90
2022-08-02T03:08:43.740Z,99.90
2022-08-02T03:11:12.172Z,99.90
2022-08-02T03:13:39.958Z,99.90
2022-08-02T03:16:07.221Z,99.90
2022-08-02T03:18:36.830Z,99.90
2022-08-02T03:21:06.327Z,99.90
2022-08-02T03:23:33.915Z,99.90
2022-08-02T03:26:01.701Z,99.90
2022-08-02T03:28:28.822Z,99.90
2022-08-02T03:30:55.777Z,99.90
2022-08-02T03:33:24.680Z,99.90
2022-08-02T03:35:53.432Z,99.90
2022-08-02T03:38:22.579Z,99.90
2022-08-02T03:40:57.783Z,99.90
2022-08-02T03:43:28.849Z,99.90
2022-08-02T03:45:56.826Z,99.90
2022-08-02T03:48:34.078Z,99.90
2022-08-02T03:51:02.623Z,99.90
2022-08-02T03:53:30.239Z,99.90
2022-08-02T03:55:57.741Z,99.90
2022-08-02T03:58:24.982Z,99.90
2022-08-02T04:00:56.758Z,99.90
2022-08-02T04:03:23.899Z,99.90
2022-08-02T04:06:03.973Z,99.90
2022-08-02T04:08:35.913Z,99.90
2022-08-02T04:11:23.286Z,99.90
2022-08-02T04:13:50.404Z,99.90
2022-08-02T04:16:21.649Z,99.90
2022-08-02T04:19:02.915Z,99.90
2022-08-02T04:21:50.150Z,99.90
2022-08-02T04:24:24.589Z,99.90
2022-08-02T04:26:58.151Z,99.90
2022-08-02T04:29:35.282Z,99.90
2022-08-02T04:32:03.670Z,99.90
2022-08-02T04:34:31.559Z,99.90
2022-08-02T04:36:59.808Z,99.90
2022-08-02T04:39:27.952Z,99.90
2022-08-02T04:41:57.789Z,99.90
2022-08-02T04:44:25.246Z,99.90
2022-08-02T04:46:52.832Z,99.90
2022-08-02T04:49:19.787Z,99.90
2022-08-02T04:51:46.940Z,99.90
2022-08-02T04:54:13.996Z,99.90
2022-08-02T04:56:41.519Z,99.90
2022-08-02T04:59:08.850Z,99.90
2022-08-02T05:01:36.119Z,99.90
2022-08-02T05:04:03.671Z,99.90
2022-08-02T05:06:31.687Z,99.90
2022-08-02T05:08:59.042Z,99.90
2022-08-02T05:11:34.648Z,99.90
2022-08-02T05:14:05.373Z,99.90
2022-08-02T05:16:32.646Z,99.90
2022-08-02T05:19:01.207Z,99.90
2022-08-02T05:21:29.329Z,99.90
2022-08-02T05:23:56.856Z,99.90
2022-08-02T05:26:23.729Z,99.90
2022-08-02T05:28:50.735Z,99.90
2022-08-02T05:31:17.620Z,99.90
2022-08-02T05:33:44.596Z,99.90
2022-08-02T05:36:11.441Z,99.90
2022-08-02T05:38:38.394Z,99.90
2022-08-02T05:41:06.407Z,99.90
2022-08-02T05:43:33.861Z,99.90
2022-08-02T05:46:00.822Z,99.90
2022-08-02T05:48:32.060Z,99.90
2022-08-02T05:51:39.286Z,99.90
2022-08-02T05:54:18.242Z,99.90
2022-08-02T05:56:56.158Z,99.90
2022-08-02T05:59:33.477Z,99.90
2022-08-02T06:02:04.617Z,99.90
2022-08-02T06:04:52.984Z,99.90
2022-08-02T06:07:24.233Z,99.90
2022-08-02T06:09:51.614Z,99.90
2022-08-02T06:12:19.551Z,99.90
2022-08-02T06:14:51.390Z,99.90
2022-08-02T06:17:21.709Z,99.90
2022-08-02T06:19:52.225Z,99.90
2022-08-02T06:22:31.246Z,99.90
2022-08-02T06:25:02.514Z,99.90
2022-08-02T06:27:31.009Z,99.90
2022-08-02T06:29:58.680Z,99.90
2022-08-02T06:32:27.719Z,99.90
2022-08-02T06:34:54.806Z,99.90
2022-08-02T06:37:31.091Z,99.90
2022-08-02T06:40:26.827Z,99.90
2022-08-02T06:43:34.478Z,99.90
2022-08-02T06:46:38.075Z,99.90
2022-08-02T06:48:50.813Z,99.90
2022-08-02T06:51:18.632Z,99.90
2022-08-02T06:53:46.553Z,99.90
2022-08-02T06:56:13.741Z,99.90
2022-08-02T06:58:40.750Z,99.90
2022-08-02T07:01:09.705Z,99.90
2022-08-02T07:03:38.253Z,99.90
2022-08-02T07:06:06.495Z,99.90
2022-08-02T07:08:33.738Z,99.90
2022-08-02T07:11:03.329Z,99.90
2022-08-02T07:13:30.311Z,99.90
2022-08-02T07:15:57.486Z,99.90
2022-08-02T07:18:24.929Z,99.90
2022-08-02T07:20:52.223Z,99.90
2022-08-02T07:23:19.128Z,99.90
2022-08-02T07:26:02.325Z,99.90
2022-08-02T07:28:31.326Z,99.90
2022-08-02T07:30:58.168Z,99.90
2022-08-02T07:33:37.572Z,99.90
2022-08-02T07:36:09.891Z,99.90
2022-08-02T07:38:44.071Z,99.90
2022-08-02T07:41:12.503Z,99.90
2022-08-02T07:43:39.584Z,99.90
2022-08-02T07:46:06.618Z,99.90
2022-08-02T07:48:33.616Z,99.90
2022-08-02T07:51:00.533Z,99.90
2022-08-02T07:53:50.102Z,99.90
2022-08-02T07:56:14.281Z,99.90
2022-08-02T07:58:44.400Z,99.90
2022-08-02T08:01:11.370Z,99.90
2022-08-02T08:03:38.503Z,99.90
2022-08-02T08:06:05.714Z,99.90
2022-08-02T08:08:35.146Z,99.90
2022-08-02T08:11:02.199Z,99.90
2022-08-02T08:13:29.197Z,99.90
2022-08-02T08:15:56.118Z,99.90
2022-08-02T08:18:23.086Z,99.90
2022-08-02T08:20:50.373Z,99.90
2022-08-02T08:23:17.270Z,99.90
2022-08-02T08:25:44.237Z,99.90
2022-08-02T08:28:12.405Z,99.00
2022-08-02T08:30:42.056Z,99.40
2022-08-02T08:33:09.492Z,98.90
2022-08-02T08:35:36.403Z,98.90
2022-08-02T08:38:07.502Z,98.30
2022-08-02T08:40:35.495Z,98.70
2022-08-02T08:43:02.482Z,98.40
2022-08-02T08:45:29.726Z,98.70
2022-08-02T08:48:30.505Z,98.60
2022-08-02T08:51:07.233Z,98.60
2022-08-02T08:53:40.062Z,98.60
2022-08-02T08:56:15.419Z,98.10
2022-08-02T08:58:44.801Z,98.00
2022-08-02T09:01:13.437Z,97.90
2022-08-02T09:03:40.325Z,96.90
2022-08-02T09:06:07.516Z,95.30
2022-08-02T09:08:34.780Z,96.80
2022-08-02T09:11:01.820Z,96.40
2022-08-02T09:13:38.954Z,95.90
2022-08-02T09:16:14.343Z,94.00
2022-08-02T09:18:46.946Z,93.90
2022-08-02T09:21:16.850Z,94.30
2022-08-02T09:23:47.185Z,93.00
2022-08-02T09:26:22.493Z,93.50
2022-08-02T09:28:52.307Z,91.10
2022-08-02T09:31:23.677Z,92.20
2022-08-02T09:33:56.703Z,91.30
2022-08-02T09:36:24.571Z,91.20
2022-08-02T09:38:59.787Z,92.50
2022-08-02T09:41:29.139Z,90.50
2022-08-02T09:44:04.522Z,91.80
2022-08-02T09:46:41.514Z,91.10
2022-08-02T09:49:13.614Z,91.10
2022-08-02T09:51:50.265Z,91.50
2022-08-02T09:54:22.006Z,91.40
2022-08-02T09:56:51.671Z,91.20
2022-08-02T09:59:20.314Z,89.60
2022-08-02T10:01:51.110Z,87.20
2022-08-02T10:04:33.877Z,87.80
2022-08-02T10:07:04.680Z,86.70
2022-08-02T10:09:32.710Z,86.20
2022-08-02T10:12:00.598Z,86.90
2022-08-02T10:14:28.492Z,85.20
2022-08-02T10:16:57.424Z,85.10
2022-08-02T10:20:02.599Z,85.70
2022-08-02T10:22:15.287Z,88.00
2022-08-02T10:24:47.826Z,84.90
2022-08-02T10:27:20.413Z,87.40
2022-08-02T10:29:55.162Z,86.20
2022-08-02T10:32:34.950Z,85.30
2022-08-02T10:35:25.250Z,84.20
2022-08-02T10:37:56.295Z,84.20
2022-08-02T10:40:23.673Z,85.80
2022-08-02T10:43:01.382Z,82.00
2022-08-02T10:45:29.143Z,83.70
2022-08-02T10:47:59.005Z,84.30
2022-08-02T10:50:52.864Z,79.50
2022-08-02T10:53:37.923Z,77.80
2022-08-02T10:56:06.276Z,76.60
2022-08-02T10:58:36.535Z,78.80
2022-08-02T11:01:05.745Z,77.50
2022-08-02T11:03:33.577Z,78.20
2022-08-02T11:06:25.479Z,77.00
2022-08-02T11:09:33.592Z,77.90
2022-08-02T11:12:07.168Z,78.60
2022-08-02T11:14:39.133Z,78.10
2022-08-02T11:17:09.249Z,80.10
2022-08-02T11:20:12.024Z,74.90
2022-08-02T11:22:40.321Z,76.90
2022-08-02T11:25:22.483Z,78.60
2022-08-02T11:27:55.996Z,76.50
2022-08-02T11:30:26.557Z,74.20
2022-08-02T11:33:00.720Z,73.70
2022-08-02T11:35:39.564Z,72.90
2022-08-02T11:38:14.517Z,75.00
2022-08-02T11:40:45.002Z,75.40
2022-08-02T11:43:23.059Z,72.80
2022-08-02T11:45:53.993Z,73.30
2022-08-02T11:48:38.424Z,75.40
2022-08-02T11:51:09.321Z,72.90
2022-08-02T11:53:53.989Z,72.10
2022-08-02T11:56:39.028Z,74.40
2022-08-02T11:59:12.934Z,75.60
2022-08-02T12:01:45.817Z,72.90
2022-08-02T12:04:22.878Z,72.30
2022-08-02T12:06:56.069Z,73.70
2022-08-02T12:09:23.966Z,72.20
2022-08-02T12:11:51.396Z,74.80
2022-08-02T12:14:18.809Z,74.70
2022-08-02T12:17:05.405Z,69.60
2022-08-02T12:19:32.501Z,70.80
2022-08-02T12:22:15.561Z,69.70
2022-08-02T12:24:48.588Z,71.00
2022-08-02T12:27:36.373Z,70.30
2022-08-02T12:30:08.158Z,70.10
2022-08-02T12:32:36.193Z,71.10
2022-08-02T12:35:04.791Z,71.50
2022-08-02T12:37:31.698Z,71.00
2022-08-02T12:39:58.951Z,71.40
2022-08-02T12:42:26.068Z,70.20
2022-08-02T12:45:01.537Z,70.10
2022-08-02T12:47:35.591Z,71.40
2022-08-02T12:50:12.339Z,67.60
2022-08-02T12:52:39.522Z,69.30
2022-08-02T12:55:59.804Z,70.60
2022-08-02T12:58:25.006Z,68.10
2022-08-02T13:00:54.965Z,65.20
2022-08-02T13:04:12.215Z,64.40
2022-08-02T13:06:41.083Z,67.40
2022-08-02T13:08:58.587Z,65.90
2022-08-02T13:11:26.525Z,63.80
2022-08-02T13:13:54.696Z,65.40
2022-08-02T13:16:30.747Z,65.80
2022-08-02T13:18:58.567Z,65.50
2022-08-02T13:21:41.237Z,64.40
2022-08-02T13:24:20.766Z,66.60
2022-08-02T13:27:08.340Z,68.00
2022-08-02T13:29:37.996Z,65.30
2022-08-02T13:32:05.495Z,64.30
2022-08-02T13:34:32.561Z,64.60
2022-08-02T13:36:59.491Z,64.30
2022-08-02T13:39:26.518Z,65.80
2022-08-02T13:41:53.523Z,65.00
2022-08-02T13:44:20.451Z,63.90
2022-08-02T13:46:47.477Z,63.40
2022-08-02T13:49:18.861Z,64.80
2022-08-02T13:51:47.864Z,63.70
2022-08-02T13:54:15.665Z,67.40
2022-08-02T13:56:42.936Z,62.40
2022-08-02T13:59:54.052Z,63.60
2022-08-02T14:01:58.463Z,63.50
2022-08-02T14:04:26.097Z,65.70
2022-08-02T14:06:53.574Z,62.90
2022-08-02T14:09:20.477Z,63.90
2022-08-02T14:11:48.053Z,65.90
2022-08-02T14:14:17.036Z,65.60
2022-08-02T14:16:45.708Z,62.20
2022-08-02T14:19:16.510Z,64.40
2022-08-02T14:21:48.705Z,65.30
2022-08-02T14:24:17.564Z,65.50
2022-08-02T14:26:45.856Z,66.10
2022-08-02T14:29:14.245Z,65.60
2022-08-02T14:31:44.435Z,65.80
2022-08-02T14:34:13.153Z,65.00
2022-08-02T14:36:40.197Z,66.20
2022-08-02T14:39:07.527Z,66.90
2022-08-02T14:41:58.135Z,66.80
2022-08-02T14:44:23.941Z,66.30
2022-08-02T14:46:52.145Z,67.80
2022-08-02T14:49:25.074Z,63.60
2022-08-02T14:51:53.928Z,64.10
2022-08-02T14:54:28.025Z,66.40
2022-08-02T14:57:02.927Z,66.60
2022-08-02T14:59:30.955Z,63.30
2022-08-02T15:01:58.813Z,65.40
2022-08-02T15:04:26.947Z,65.60
2022-08-02T15:06:54.782Z,66.70
2022-08-02T15:09:22.180Z,64.90
2022-08-02T15:11:49.649Z,65.50
2022-08-02T15:14:25.902Z,66.30
2022-08-02T15:16:58.358Z,65.70
2022-08-02T15:19:30.307Z,65.60
2022-08-02T15:22:16.678Z,67.20
2022-08-02T15:24:46.805Z,67.10
2022-08-02T15:27:14.781Z,67.40
2022-08-02T15:29:43.268Z,67.30
2022-08-02T15:32:11.139Z,68.20
2022-08-02T15:34:39.148Z,68.00
2022-08-02T15:37:06.163Z,68.50
2022-08-02T15:39:33.048Z,67.00
2022-08-02T15:41:59.950Z,65.80
2022-08-02T15:44:26.879Z,66.40
2022-08-02T15:46:54.335Z,66.10
2022-08-02T15:49:23.780Z,66.80
2022-08-02T15:51:54.852Z,65.90
2022-08-02T15:54:22.049Z,66.90
2022-08-02T15:56:49.407Z,66.40
2022-08-02T15:59:16.592Z,65.10
2022-08-02T16:01:47.052Z,66.30
2022-08-02T16:04:16.079Z,64.80
2022-08-02T16:06:44.163Z,65.50
2022-08-02T16:09:11.452Z,66.40
2022-08-02T16:11:38.582Z,67.20
2022-08-02T16:14:05.693Z,65.90
2022-08-02T16:16:34.471Z,66.30
2022-08-02T16:19:46.586Z,66.40
2022-08-02T16:21:50.713Z,66.90
2022-08-02T16:24:17.753Z,66.80
2022-08-02T16:26:44.729Z,66.00
2022-08-02T16:29:11.627Z,66.90
2022-08-02T16:31:42.630Z,66.30
2022-08-02T16:34:10.244Z,67.40
2022-08-02T16:36:38.023Z,66.60
2022-08-02T16:39:05.718Z,65.90
2022-08-02T16:41:51.776Z,66.20
2022-08-02T16:44:27.611Z,66.90
2022-08-02T16:47:00.933Z,66.40
2022-08-02T16:50:07.136Z,66.60
2022-08-02T16:52:16.597Z,66.80
2022-08-02T16:54:46.459Z,66.40
2022-08-02T16:57:20.283Z,68.00
2022-08-02T16:59:58.150Z,68.10
2022-08-02T17:02:27.771Z,68.20
2022-08-02T17:04:55.275Z,68.30
2022-08-02T17:08:08.014Z,68.30
2022-08-02T17:10:10.184Z,68.00
2022-08-02T17:12:39.107Z,68.70
2022-08-02T17:15:36.245Z,67.60
2022-08-02T17:17:54.916Z,67.90
2022-08-02T17:20:24.293Z,67.90
2022-08-02T17:22:52.033Z,68.40
2022-08-02T17:25:19.827Z,67.70
2022-08-02T17:27:47.073Z,67.50
2022-08-02T17:30:26.816Z,68.70
2022-08-02T17:32:54.584Z,69.20
2022-08-02T17:35:25.074Z,69.60
2022-08-02T17:37:54.717Z,69.40
2022-08-02T17:40:27.160Z,69.90
2022-08-02T17:42:54.151Z,69.40
2022-08-02T17:45:25.342Z,69.40
2022-08-02T17:48:05.117Z,70.30
2022-08-02T17:50:33.954Z,69.90
2022-08-02T17:53:01.762Z,70.80
2022-08-02T17:55:30.979Z,70.10
2022-08-02T17:57:59.438Z,70.50
2022-08-02T18:00:37.960Z,70.70
2022-08-02T18:03:09.863Z,71.00
2022-08-02T18:05:39.831Z,71.40
2022-08-02T18:08:22.700Z,71.40
2022-08-02T18:10:52.564Z,71.20
2022-08-02T18:13:19.664Z,71.80
2022-08-02T18:15:46.699Z,72.40
2022-08-02T18:18:14.383Z,71.90
2022-08-02T18:20:42.027Z,71.80
2022-08-02T18:23:13.774Z,72.50
2022-08-02T18:25:45.784Z,72.60
2022-08-02T18:28:29.262Z,72.30
2022-08-02T18:30:56.387Z,72.80
2022-08-02T18:33:57.414Z,72.80
2022-08-02T18:36:11.041Z,73.70
2022-08-02T18:38:51.670Z,73.40
2022-08-02T18:41:19.538Z,73.30
2022-08-02T18:43:48.748Z,73.40
2022-08-02T18:46:20.131Z,74.00
2022-08-02T18:48:48.077Z,74.20
2022-08-02T18:51:18.968Z,74.50
2022-08-02T18:53:50.798Z,75.10
2022-08-02T18:56:19.955Z,75.80
2022-08-02T18:58:52.092Z,76.00
2022-08-02T19:01:32.257Z,76.00
2022-08-02T19:04:02.824Z,76.50
2022-08-02T19:06:30.854Z,76.20
2022-08-02T19:09:05.963Z,76.50
2022-08-02T19:11:41.085Z,76.30
2022-08-02T19:14:08.781Z,76.40
2022-08-02T19:16:37.365Z,76.70
2022-08-02T19:19:08.934Z,77.10
2022-08-02T19:22:18.229Z,77.30
2022-08-02T19:24:22.759Z,77.90
2022-08-02T19:26:52.458Z,77.90
2022-08-02T19:29:41.983Z,77.80
2022-08-02T19:34:56.223Z,78.40
2022-08-02T19:37:23.701Z,79.10
2022-08-02T19:39:51.027Z,79.20
2022-08-02T19:42:18.730Z,79.60
2022-08-02T19:44:46.415Z,79.60
2022-08-02T19:47:19.285Z,80.10
2022-08-02T19:49:48.888Z,80.60
2022-08-02T19:52:21.237Z,81.10
2022-08-02T19:54:56.055Z,82.30
2022-08-02T19:57:25.333Z,82.60
2022-08-02T19:59:53.992Z,82.50
2022-08-02T20:02:21.594Z,84.10
2022-08-02T20:04:50.123Z,84.70
2022-08-02T20:07:54.656Z,85.30
2022-08-02T20:10:10.819Z,84.90
2022-08-02T20:12:39.202Z,84.90
2022-08-02T20:15:14.960Z,85.90
2022-08-02T20:17:47.591Z,86.50
2022-08-02T20:20:15.295Z,86.60
2022-08-02T20:23:00.716Z,87.20
2022-08-02T20:25:29.027Z,87.20
2022-08-02T20:27:56.266Z,87.70
2022-08-02T20:30:25.595Z,87.70
2022-08-02T20:32:58.826Z,88.90
2022-08-02T20:35:29.888Z,88.70
2022-08-02T20:38:02.099Z,88.80
2022-08-02T20:40:31.989Z,89.30
2022-08-02T20:42:59.014Z,88.80
2022-08-02T20:45:27.134Z,88.90
2022-08-02T20:47:54.871Z,89.40
2022-08-02T20:50:44.605Z,89.70
2022-08-02T20:53:23.892Z,90.00
2022-08-02T20:55:55.109Z,90.10
2022-08-02T20:58:26.784Z,90.10
2022-08-02T21:00:59.149Z,90.30
2022-08-02T21:03:39.425Z,90.50
2022-08-02T21:06:14.691Z,90.50
2022-08-02T21:08:42.184Z,90.20
2022-08-02T21:11:14.262Z,90.30
2022-08-02T21:13:47.306Z,90.50
2022-08-02T21:16:28.621Z,91.20
2022-08-02T21:18:59.949Z,90.90
2022-08-02T21:21:28.229Z,91.30
2022-08-02T21:23:56.681Z,91.20
2022-08-02T21:26:27.870Z,92.20
2022-08-02T21:29:13.619Z,92.50
2022-08-02T21:31:40.986Z,92.60
2022-08-02T21:34:22.531Z,93.30
2022-08-02T21:36:55.032Z,93.80
2022-08-02T21:39:22.206Z,94.20
2022-08-02T21:41:49.908Z,94.40
2022-08-02T21:44:19.031Z,94.50
2022-08-02T21:46:49.254Z,94.60
2022-08-02T21:49:27.379Z,94.80
2022-08-02T21:52:08.732Z,95.10
2022-08-02T21:54:39.797Z,95.40
2022-08-02T21:57:15.782Z,95.80
2022-08-02T21:59:47.842Z,96.00
2022-08-02T22:02:30.925Z,96.20
2022-08-02T22:04:58.477Z,96.40
2022-08-02T22:07:25.867Z,96.50
2022-08-02T22:09:53.676Z,97.00
2022-08-02T22:12:26.332Z,97.00
2022-08-02T22:14:55.768Z,97.30
2022-08-02T22:17:51.867Z,96.90
2022-08-02T22:20:20.293Z,96.80
2022-08-02T22:22:50.608Z,96.70
2022-08-02T22:25:27.010Z,96.60
2022-08-02T22:28:35.595Z,97.10
2022-08-02T22:30:56.933Z,97.10
2022-08-02T22:33:47.026Z,97.50
2022-08-02T22:36:28.620Z,97.70
2022-08-02T22:38:55.805Z,97.90
2022-08-02T22:41:22.974Z,97.80
2022-08-02T22:43:50.819Z,98.60
2022-08-02T22:46:17.903Z,99.00
2022-08-02T22:48:45.813Z,99.20
2022-08-02T22:51:14.614Z,99.40
2022-08-02T22:53:43.571Z,99.70
2022-08-02T22:56:11.450Z,99.80
2022-08-02T22:58:48.315Z,78.20
2022-08-02T22:59:05.292Z,99.90
2022-08-02T23:01:25.996Z,99.90
2022-08-02T23:03:53.611Z,99.90
2022-08-02T23:06:22.712Z,99.90
2022-08-02T23:08:50.075Z,99.90
2022-08-02T23:11:17.063Z,99.90
2022-08-02T23:13:44.028Z,99.90
2022-08-02T23:16:29.552Z,99.90
2022-08-02T23:19:14.949Z,99.90
2022-08-02T23:22:00.819Z,99.90
2022-08-02T23:24:28.814Z,99.90
2022-08-02T23:26:55.744Z,99.90
2022-08-02T23:29:22.636Z,99.90
2022-08-02T23:31:49.615Z,99.90
2022-08-02T23:34:17.518Z,99.90
2022-08-02T23:36:44.469Z,99.90
2022-08-02T23:39:11.499Z,99.90
2022-08-02T23:41:38.571Z,99.90
2022-08-02T23:44:14.556Z,99.90
2022-08-02T23:46:43.623Z,99.90
2022-08-02T23:49:11.756Z,99.90
2022-08-02T23:51:38.730Z,99.90
2022-08-02T23:54:05.818Z,99.90
2022-08-02T23:56:32.990Z,99.90
2022-08-02T23:58:59.872Z,99.90
